createdAt,value
2019-05-23T00:02:12.363Z,8.78
2019-05-23T00:04:50.121Z,8.77
2019-05-23T00:07:25.829Z,8.79
2019-05-23T00:10:01.640Z,8.77
2019-05-23T00:12:42.809Z,8.71
2019-05-23T00:15:29.670Z,8.72
2019-05-23T00:18:04.936Z,8.70
2019-05-23T00:20:38.439Z,8.62
2019-05-23T00:23:13.936Z,8.56
2019-05-23T00:25:49.340Z,8.65
2019-05-23T00:28:22.831Z,8.68
2019-05-23T00:31:00.442Z,8.69
2019-05-23T00:33:35.017Z,8.68
2019-05-23T00:36:10.465Z,8.64
2019-05-23T00:38:44.023Z,8.65
2019-05-23T00:41:19.198Z,8.65
2019-05-23T00:43:53.798Z,8.57
2019-05-23T00:46:27.688Z,8.50
2019-05-23T00:49:02.937Z,8.45
2019-05-23T00:51:36.843Z,8.44
2019-05-23T00:54:11.321Z,8.44
2019-05-23T00:56:45.652Z,8.47
2019-05-23T00:59:27.211Z,8.43
2019-05-23T01:01:54.823Z,8.45
2019-05-23T01:04:28.483Z,8.44
2019-05-23T01:07:02.070Z,8.40
2019-05-23T01:09:36.318Z,8.38
2019-05-23T01:12:09.892Z,8.36
2019-05-23T01:14:44.352Z,8.35
2019-05-23T01:17:20.738Z,8.33
2019-05-23T01:19:54.382Z,8.34
2019-05-23T01:22:28.764Z,8.34
2019-05-23T01:25:02.168Z,8.37
2019-05-23T01:27:35.577Z,8.36
2019-05-23T01:30:12.553Z,8.27
2019-05-23T01:32:47.617Z,8.12
2019-05-23T01:35:22.442Z,8.10
2019-05-23T01:37:56.611Z,8.00
2019-05-23T01:40:31.050Z,7.80
2019-05-23T01:43:05.099Z,7.77
2019-05-23T01:45:40.311Z,7.77
2019-05-23T01:48:15.485Z,7.87
2019-05-23T01:50:50.132Z,7.94
2019-05-23T01:53:24.655Z,7.98
2019-05-23T01:55:58.406Z,7.99
2019-05-23T01:58:33.369Z,7.94
2019-05-23T02:01:07.205Z,7.83
2019-05-23T02:03:41.293Z,7.93
2019-05-23T02:06:14.844Z,8.02
2019-05-23T02:08:48.667Z,8.05
2019-05-23T02:11:24.114Z,8.01
2019-05-23T02:13:57.544Z,8.01
2019-05-23T02:16:31.622Z,7.84
2019-05-23T02:19:05.773Z,7.73
2019-05-23T02:21:40.036Z,7.67
2019-05-23T02:24:15.101Z,7.56
2019-05-23T02:26:48.577Z,7.41
2019-05-23T02:29:22.069Z,7.40
2019-05-23T02:31:55.940Z,7.38
2019-05-23T02:34:30.487Z,7.42
2019-05-23T02:37:05.589Z,7.35
2019-05-23T02:39:40.655Z,7.32
2019-05-23T02:42:15.692Z,7.35
2019-05-23T02:44:50.420Z,7.26
2019-05-23T02:47:28.737Z,7.48
2019-05-23T02:50:04.811Z,7.56
2019-05-23T02:52:42.314Z,7.50
2019-05-23T02:55:19.947Z,7.40
2019-05-23T02:57:55.385Z,7.37
2019-05-23T03:00:55.371Z,7.38
2019-05-23T03:03:30.398Z,7.33
2019-05-23T03:06:06.451Z,7.25
2019-05-23T03:08:40.712Z,7.18
2019-05-23T03:11:30.709Z,7.07
2019-05-23T03:14:05.451Z,7.00
2019-05-23T03:16:42.391Z,7.01
2019-05-23T03:19:21.814Z,7.04
2019-05-23T03:21:58.487Z,7.03
2019-05-23T03:24:33.598Z,7.02
2019-05-23T03:27:09.238Z,7.00
2019-05-23T03:29:42.614Z,6.97
2019-05-23T03:32:18.546Z,7.02
2019-05-23T03:34:53.679Z,6.98
2019-05-23T03:37:27.253Z,6.99
2019-05-23T03:40:01.883Z,6.99
2019-05-23T03:42:36.354Z,7.10
2019-05-23T03:45:12.153Z,7.08
2019-05-23T03:47:46.010Z,7.08
2019-05-23T03:50:20.453Z,7.03
2019-05-23T03:52:55.015Z,7.14
2019-05-23T03:55:30.629Z,7.27
2019-05-23T03:58:04.875Z,7.37
2019-05-23T04:00:40.275Z,7.35
2019-05-23T04:03:14.243Z,7.38
2019-05-23T04:05:47.690Z,7.41
2019-05-23T04:08:22.170Z,7.40
2019-05-23T04:10:56.492Z,7.42
2019-05-23T04:13:30.383Z,7.32
2019-05-23T04:16:03.837Z,7.37
2019-05-23T04:18:37.260Z,7.49
2019-05-23T04:21:11.042Z,7.62
2019-05-23T04:23:44.549Z,7.77
2019-05-23T04:26:17.937Z,7.92
2019-05-23T04:28:52.066Z,7.96
2019-05-23T04:31:25.768Z,8.11
2019-05-23T04:33:59.628Z,8.27
2019-05-23T04:36:33.171Z,8.33
2019-05-23T04:39:07.757Z,8.51
2019-05-23T04:41:41.272Z,8.75
2019-05-23T04:44:16.692Z,9.12
2019-05-23T04:46:50.364Z,9.39
2019-05-23T04:49:23.840Z,9.63
2019-05-23T04:51:57.769Z,9.89
2019-05-23T04:54:31.227Z,10.39
2019-05-23T04:57:05.029Z,10.93
2019-05-23T04:59:39.218Z,10.94
2019-05-23T05:02:25.483Z,11.05
2019-05-23T05:04:47.894Z,11.28
2019-05-23T05:07:21.834Z,11.75
2019-05-23T05:09:55.263Z,11.69
2019-05-23T05:12:29.031Z,10.86
2019-05-23T05:15:02.686Z,10.50
2019-05-23T05:17:36.424Z,10.19
2019-05-23T05:20:10.760Z,10.31
2019-05-23T05:22:45.377Z,10.27
2019-05-23T05:25:19.414Z,10.15
2019-05-23T05:27:52.900Z,10.45
2019-05-23T05:30:26.679Z,10.52
2019-05-23T05:33:00.145Z,10.88
2019-05-23T05:35:35.206Z,11.04
2019-05-23T05:38:08.610Z,11.46
2019-05-23T05:40:42.496Z,11.20
2019-05-23T05:43:17.024Z,11.32
2019-05-23T05:45:50.539Z,11.98
2019-05-23T05:48:23.944Z,12.91
2019-05-23T05:50:57.384Z,13.53
2019-05-23T05:53:31.416Z,13.71
2019-05-23T05:56:05.109Z,13.79
2019-05-23T05:58:38.843Z,13.70
2019-05-23T06:01:13.954Z,13.54
2019-05-23T06:03:47.409Z,13.71
2019-05-23T06:06:31.456Z,13.80
2019-05-23T06:09:14.301Z,13.92
2019-05-23T06:11:47.814Z,13.71
2019-05-23T06:14:21.728Z,13.66
2019-05-23T06:16:56.564Z,13.56
2019-05-23T06:19:30.289Z,14.53
2019-05-23T06:22:04.213Z,14.84
2019-05-23T06:24:46.894Z,14.57
2019-05-23T06:27:15.369Z,14.66
2019-05-23T06:29:48.848Z,15.13
2019-05-23T06:32:23.986Z,15.11
2019-05-23T06:34:57.396Z,14.64
2019-05-23T06:37:34.311Z,15.67
2019-05-23T06:40:09.955Z,14.71
2019-05-23T06:42:44.134Z,15.25
2019-05-23T06:45:17.933Z,14.50
2019-05-23T06:47:51.410Z,15.87
2019-05-23T06:50:25.492Z,16.51
2019-05-23T06:52:59.382Z,16.04
2019-05-23T06:55:32.778Z,16.47
2019-05-23T06:58:06.464Z,16.78
2019-05-23T07:00:40.767Z,16.08
2019-05-23T07:03:14.749Z,17.00
2019-05-23T07:05:48.477Z,17.61
2019-05-23T07:08:25.363Z,18.23
2019-05-23T07:10:59.143Z,17.09
2019-05-23T07:13:34.957Z,17.56
2019-05-23T07:16:08.356Z,17.21
2019-05-23T07:18:44.598Z,17.92
2019-05-23T07:21:20.093Z,16.90
2019-05-23T07:23:53.985Z,17.04
2019-05-23T07:26:28.651Z,16.01
2019-05-23T07:29:02.281Z,16.91
2019-05-23T07:31:35.859Z,17.69
2019-05-23T07:34:09.293Z,18.95
2019-05-23T07:36:43.220Z,19.49
2019-05-23T07:39:17.669Z,18.40
2019-05-23T07:41:51.237Z,17.06
2019-05-23T07:44:25.777Z,17.08
2019-05-23T07:47:00.720Z,16.95
2019-05-23T07:49:34.403Z,17.70
2019-05-23T07:52:07.868Z,18.30
2019-05-23T07:54:49.497Z,18.95
2019-05-23T07:57:25.105Z,18.46
2019-05-23T07:59:58.617Z,17.44
2019-05-23T08:02:35.632Z,18.22
2019-05-23T08:05:11.342Z,16.07
2019-05-23T08:07:44.857Z,16.02
2019-05-23T08:10:32.674Z,17.14
2019-05-23T08:12:54.096Z,17.82
2019-05-23T08:15:28.475Z,17.40
2019-05-23T08:18:03.291Z,17.36
2019-05-23T08:20:36.785Z,17.74
2019-05-23T08:23:10.255Z,17.98
2019-05-23T08:25:43.856Z,17.81
2019-05-23T08:28:17.398Z,18.25
2019-05-23T08:30:51.101Z,18.48
2019-05-23T08:33:24.543Z,18.01
2019-05-23T08:35:57.965Z,17.42
2019-05-23T08:38:31.355Z,18.01
2019-05-23T08:41:06.894Z,17.72
2019-05-23T08:43:40.369Z,17.66
2019-05-23T08:46:15.021Z,18.14
2019-05-23T08:48:48.765Z,18.24
2019-05-23T08:51:22.292Z,18.44
2019-05-23T08:53:56.046Z,18.45
2019-05-23T08:56:29.920Z,17.76
2019-05-23T08:59:04.210Z,18.10
2019-05-23T09:01:37.781Z,18.53
2019-05-23T09:04:11.724Z,18.89
2019-05-23T09:06:45.332Z,19.10
2019-05-23T09:09:29.275Z,19.16
2019-05-23T09:11:54.132Z,19.28
2019-05-23T09:14:28.259Z,19.26
2019-05-23T09:17:02.054Z,19.38
2019-05-23T09:19:35.510Z,19.65
2019-05-23T09:22:08.956Z,18.83
2019-05-23T09:24:42.349Z,19.25
2019-05-23T09:27:15.752Z,19.61
2019-05-23T09:29:49.531Z,20.25
2019-05-23T09:32:23.303Z,19.18
2019-05-23T09:34:56.715Z,19.37
2019-05-23T09:37:30.667Z,19.42
2019-05-23T09:40:05.717Z,20.26
2019-05-23T09:42:39.159Z,20.56
2019-05-23T09:45:13.883Z,19.87
2019-05-23T09:47:51.009Z,20.21
2019-05-23T09:50:24.723Z,20.25
2019-05-23T09:52:58.203Z,20.37
2019-05-23T09:55:31.713Z,20.60
2019-05-23T09:58:05.215Z,20.59
2019-05-23T10:00:39.039Z,21.15
2019-05-23T10:03:12.927Z,20.43
2019-05-23T10:05:46.322Z,20.74
2019-05-23T10:08:19.896Z,20.02
2019-05-23T10:10:53.360Z,19.55
2019-05-23T10:13:38.417Z,19.42
2019-05-23T10:16:07.139Z,19.66
2019-05-23T10:18:40.665Z,19.49
2019-05-23T10:21:14.083Z,19.39
2019-05-23T10:23:47.491Z,19.29
2019-05-23T10:26:21.201Z,19.41
2019-05-23T10:28:54.722Z,20.48
2019-05-23T10:31:28.123Z,19.76
2019-05-23T10:34:01.576Z,20.08
2019-05-23T10:36:34.981Z,19.48
2019-05-23T10:39:11.343Z,19.33
2019-05-23T10:41:44.817Z,20.12
2019-05-23T10:44:18.627Z,19.87
2019-05-23T10:46:52.108Z,20.17
2019-05-23T10:49:26.084Z,19.54
2019-05-23T10:52:00.383Z,19.56
2019-05-23T10:54:33.826Z,19.69
2019-05-23T10:57:07.239Z,20.32
2019-05-23T10:59:40.666Z,20.54
2019-05-23T11:02:14.746Z,20.41
2019-05-23T11:04:48.318Z,19.84
2019-05-23T11:07:22.428Z,19.98
2019-05-23T11:09:56.022Z,19.74
2019-05-23T11:12:29.634Z,19.34
2019-05-23T11:15:03.776Z,19.53
2019-05-23T11:17:38.203Z,20.04
2019-05-23T11:20:13.487Z,19.70
2019-05-23T11:22:46.950Z,19.98
2019-05-23T11:25:20.529Z,20.13
2019-05-23T11:27:54.355Z,21.19
2019-05-23T11:30:41.660Z,20.35
2019-05-23T11:33:15.827Z,20.08
2019-05-23T11:35:49.905Z,20.45
2019-05-23T11:38:23.396Z,20.42
2019-05-23T11:40:56.936Z,20.02
2019-05-23T11:43:30.355Z,19.94
2019-05-23T11:46:19.381Z,20.87
2019-05-23T11:48:53.158Z,21.67
2019-05-23T11:51:27.276Z,21.45
2019-05-23T11:54:07.954Z,21.82
2019-05-23T11:56:37.141Z,21.08
2019-05-23T11:59:10.977Z,21.67
2019-05-23T12:02:01.937Z,21.60
2019-05-23T12:04:36.752Z,22.04
2019-05-23T12:07:12.078Z,21.85
2019-05-23T12:09:46.314Z,22.66
2019-05-23T12:12:19.896Z,22.09
2019-05-23T12:14:53.549Z,21.80
2019-05-23T12:17:29.251Z,21.52
2019-05-23T12:20:03.028Z,21.68
2019-05-23T12:22:36.813Z,22.19
2019-05-23T12:25:21.772Z,21.57
2019-05-23T12:27:47.172Z,21.57
2019-05-23T12:30:21.854Z,21.88
2019-05-23T12:32:55.343Z,21.43
2019-05-23T12:35:28.874Z,21.21
2019-05-23T12:38:02.803Z,20.58
2019-05-23T12:40:36.472Z,21.01
2019-05-23T12:43:09.888Z,21.16
2019-05-23T12:45:45.236Z,20.77
2019-05-23T12:48:20.437Z,21.05
2019-05-23T12:50:55.732Z,21.33
2019-05-23T12:53:29.196Z,21.19
2019-05-23T12:56:02.786Z,21.19
2019-05-23T12:58:36.625Z,20.46
2019-05-23T13:01:12.143Z,20.71
2019-05-23T13:03:45.594Z,20.60
2019-05-23T13:06:19.371Z,20.50
2019-05-23T13:08:52.853Z,20.73
2019-05-23T13:11:26.787Z,21.09
2019-05-23T13:14:00.216Z,20.57
2019-05-23T13:16:33.647Z,20.13
2019-05-23T13:19:07.099Z,20.66
2019-05-23T13:21:40.634Z,20.79
2019-05-23T13:24:14.199Z,20.89
2019-05-23T13:26:47.989Z,20.71
2019-05-23T13:29:24.211Z,20.54
2019-05-23T13:31:56.686Z,20.26
2019-05-23T13:34:30.132Z,20.85
2019-05-23T13:37:03.715Z,21.10
2019-05-23T13:39:37.347Z,20.84
2019-05-23T13:42:10.917Z,20.69
2019-05-23T13:44:44.871Z,20.25
2019-05-23T13:47:18.412Z,21.09
2019-05-23T13:49:51.840Z,20.94
2019-05-23T13:52:25.312Z,20.68
2019-05-23T13:54:58.803Z,21.04
2019-05-23T13:57:32.488Z,21.34
2019-05-23T14:00:08.129Z,21.46
2019-05-23T14:02:41.534Z,21.13
2019-05-23T14:05:18.865Z,21.27
2019-05-23T14:07:50.669Z,20.88
2019-05-23T14:10:24.451Z,20.58
2019-05-23T14:12:57.902Z,20.72
2019-05-23T14:15:42.313Z,20.71
2019-05-23T14:18:17.445Z,20.51
2019-05-23T14:20:51.875Z,20.10
2019-05-23T14:23:29.998Z,20.20
2019-05-23T14:26:03.478Z,20.82
2019-05-23T14:28:37.031Z,21.46
2019-05-23T14:31:12.408Z,21.91
2019-05-23T14:33:47.531Z,22.10
2019-05-23T14:36:32.660Z,22.51
2019-05-23T14:39:09.489Z,21.93
2019-05-23T14:41:45.799Z,22.12
2019-05-23T14:44:19.682Z,22.53
2019-05-23T14:47:10.986Z,22.95
2019-05-23T14:50:02.389Z,22.86
2019-05-23T14:52:37.538Z,22.11
2019-05-23T14:55:13.347Z,22.15
2019-05-23T14:57:46.797Z,21.57
2019-05-23T15:00:20.632Z,21.41
2019-05-23T15:02:54.212Z,20.82
2019-05-23T15:05:27.766Z,20.66
2019-05-23T15:08:01.379Z,20.37
2019-05-23T15:10:34.942Z,20.36
2019-05-23T15:13:08.464Z,20.30
2019-05-23T15:15:41.943Z,20.44
2019-05-23T15:18:15.624Z,20.56
2019-05-23T15:20:49.112Z,20.73
2019-05-23T15:23:24.081Z,20.67
2019-05-23T15:25:57.660Z,20.42
2019-05-23T15:28:31.237Z,20.52
2019-05-23T15:31:05.341Z,20.44
2019-05-23T15:33:38.841Z,21.23
2019-05-23T15:36:12.394Z,21.19
2019-05-23T15:38:45.838Z,20.83
2019-05-23T15:41:19.248Z,20.88
2019-05-23T15:43:52.651Z,21.81
2019-05-23T15:46:26.055Z,20.86
2019-05-23T15:48:59.971Z,20.81
2019-05-23T15:51:35.026Z,20.53
2019-05-23T15:54:12.788Z,20.26
2019-05-23T15:57:04.020Z,20.36
2019-05-23T15:59:39.215Z,20.85
2019-05-23T16:02:14.611Z,21.27
2019-05-23T16:04:48.583Z,22.49
2019-05-23T16:07:22.172Z,23.54
2019-05-23T16:09:55.996Z,23.38
2019-05-23T16:12:29.456Z,22.29
2019-05-23T16:15:03.433Z,22.02
2019-05-23T16:17:36.857Z,21.75
2019-05-23T16:20:10.525Z,22.30
2019-05-23T16:22:44.629Z,22.44
2019-05-23T16:25:18.886Z,22.11
2019-05-23T16:27:53.449Z,23.40
2019-05-23T16:30:27.190Z,23.38
2019-05-23T16:33:00.595Z,23.80
2019-05-23T16:35:34.384Z,23.66
2019-05-23T16:38:07.790Z,23.42
2019-05-23T16:40:41.199Z,23.28
2019-05-23T16:43:14.780Z,24.00
2019-05-23T16:45:48.235Z,24.48
2019-05-23T16:48:21.673Z,25.19
2019-05-23T16:50:55.109Z,25.37
2019-05-23T16:53:29.822Z,24.24
2019-05-23T16:56:08.408Z,24.44
2019-05-23T16:59:03.180Z,24.44
2019-05-23T17:01:47.001Z,24.00
2019-05-23T17:04:22.278Z,24.12
2019-05-23T17:07:03.566Z,23.12
2019-05-23T17:10:07.417Z,24.52
2019-05-23T17:12:39.332Z,23.78
2019-05-23T17:15:33.691Z,23.88
2019-05-23T17:18:08.815Z,23.79
2019-05-23T17:20:46.944Z,23.49
2019-05-23T17:23:36.967Z,23.21
2019-05-23T17:26:14.446Z,24.11
2019-05-23T17:28:49.586Z,24.25
2019-05-23T17:31:27.124Z,23.47
2019-05-23T17:34:00.569Z,23.64
2019-05-23T17:36:34.503Z,22.32
2019-05-23T17:39:10.184Z,23.60
2019-05-23T17:41:44.158Z,22.76
2019-05-23T17:44:18.040Z,22.48
2019-05-23T17:46:51.507Z,21.85
2019-05-23T17:49:24.935Z,22.20
2019-05-23T17:51:58.333Z,21.70
2019-05-23T17:54:32.028Z,20.78
2019-05-23T17:57:05.577Z,20.68
2019-05-23T17:59:39.362Z,20.50
2019-05-23T18:02:13.048Z,20.31
2019-05-23T18:04:46.518Z,20.22
2019-05-23T18:07:20.080Z,20.17
2019-05-23T18:09:53.511Z,19.99
2019-05-23T18:12:26.979Z,20.00
2019-05-23T18:15:00.647Z,20.05
2019-05-23T18:17:34.154Z,19.99
2019-05-23T18:20:08.598Z,19.96
2019-05-23T18:22:42.184Z,19.90
2019-05-23T18:25:17.380Z,19.86
2019-05-23T18:27:51.297Z,19.73
2019-05-23T18:30:38.713Z,19.74
2019-05-23T18:33:12.645Z,19.67
2019-05-23T18:35:48.087Z,19.41
2019-05-23T18:38:21.867Z,19.18
2019-05-23T18:41:03.103Z,18.99
2019-05-23T18:43:31.753Z,18.99
2019-05-23T18:46:09.755Z,19.01
2019-05-23T18:48:43.728Z,19.02
2019-05-23T18:51:17.509Z,18.89
2019-05-23T18:53:51.173Z,18.62
2019-05-23T18:56:24.906Z,18.30
2019-05-23T18:58:58.875Z,18.09
2019-05-23T19:01:33.253Z,18.07
2019-05-23T19:04:07.552Z,18.04
2019-05-23T19:06:41.048Z,17.90
2019-05-23T19:09:16.195Z,17.58
2019-05-23T19:11:50.364Z,17.39
2019-05-23T19:14:23.863Z,17.14
2019-05-23T19:16:57.692Z,17.10
2019-05-23T19:19:31.734Z,16.98
2019-05-23T19:22:05.521Z,16.80
2019-05-23T19:24:39.197Z,16.85
2019-05-23T19:27:14.507Z,16.85
2019-05-23T19:29:48.777Z,16.76
2019-05-23T19:32:23.650Z,16.61
2019-05-23T19:34:57.615Z,16.21
2019-05-23T19:37:31.023Z,16.21
2019-05-23T19:40:08.151Z,16.39
2019-05-23T19:42:41.746Z,16.42
2019-05-23T19:45:15.297Z,16.24
2019-05-23T19:47:48.732Z,16.10
2019-05-23T19:50:22.754Z,15.99
2019-05-23T19:52:56.339Z,15.89
2019-05-23T19:55:29.940Z,15.78
2019-05-23T19:58:03.940Z,15.73
2019-05-23T20:00:38.787Z,15.57
2019-05-23T20:03:12.197Z,15.50
2019-05-23T20:05:47.571Z,15.46
2019-05-23T20:08:21.032Z,15.46
2019-05-23T20:10:54.541Z,15.46
2019-05-23T20:13:28.226Z,15.42
2019-05-23T20:16:02.146Z,15.29
2019-05-23T20:18:35.720Z,15.21
2019-05-23T20:21:09.192Z,15.17
2019-05-23T20:23:42.697Z,15.10
2019-05-23T20:26:16.385Z,15.06
2019-05-23T20:28:49.869Z,14.93
2019-05-23T20:31:23.367Z,14.74
2019-05-23T20:33:56.947Z,14.74
2019-05-23T20:36:30.333Z,14.72
2019-05-23T20:39:05.354Z,14.68
2019-05-23T20:41:39.421Z,14.58
2019-05-23T20:44:13.008Z,14.48
2019-05-23T20:46:46.487Z,14.50
2019-05-23T20:49:19.919Z,14.36
2019-05-23T20:51:53.461Z,14.28
2019-05-23T20:54:27.497Z,14.26
2019-05-23T20:57:01.037Z,14.17
2019-05-23T20:59:34.935Z,14.22
2019-05-23T21:02:08.559Z,14.26
2019-05-23T21:04:41.981Z,14.26
2019-05-23T21:07:15.394Z,14.29
2019-05-23T21:09:48.821Z,14.30
2019-05-23T21:12:30.244Z,14.28
2019-05-23T21:14:57.415Z,14.26
2019-05-23T21:17:31.557Z,14.13
2019-05-23T21:20:06.530Z,14.06
2019-05-23T21:22:39.927Z,14.01
2019-05-23T21:25:13.522Z,13.88
2019-05-23T21:27:46.928Z,13.74
2019-05-23T21:30:20.518Z,13.75
2019-05-23T21:32:53.937Z,13.68
2019-05-23T21:35:27.387Z,13.52
2019-05-23T21:38:00.859Z,13.44
2019-05-23T21:40:40.056Z,13.40
2019-05-23T21:43:13.822Z,13.38
2019-05-23T21:45:47.529Z,13.37
2019-05-23T21:48:21.187Z,13.41
2019-05-23T21:50:54.675Z,13.41
2019-05-23T21:53:28.074Z,13.44
2019-05-23T21:56:01.507Z,13.54
2019-05-23T21:58:34.914Z,13.53
2019-05-23T22:01:11.717Z,13.36
2019-05-23T22:03:52.802Z,13.25
2019-05-23T22:06:30.883Z,13.17
2019-05-23T22:09:07.305Z,13.07
2019-05-23T22:11:40.736Z,13.05
2019-05-23T22:14:14.277Z,13.07
2019-05-23T22:16:48.398Z,13.05
2019-05-23T22:19:25.538Z,12.96
2019-05-23T22:21:59.023Z,12.98
2019-05-23T22:24:32.502Z,12.95
2019-05-23T22:27:07.720Z,12.86
2019-05-23T22:29:41.126Z,12.85
2019-05-23T22:32:16.194Z,12.66
2019-05-23T22:34:52.190Z,12.66
2019-05-23T22:37:25.982Z,12.71
2019-05-23T22:39:59.473Z,12.75
2019-05-23T22:42:34.723Z,12.70
2019-05-23T22:45:10.211Z,12.65
2019-05-23T22:47:43.633Z,12.57
2019-05-23T22:50:17.370Z,12.46
2019-05-23T22:52:50.806Z,12.42
2019-05-23T22:55:24.353Z,12.41
2019-05-23T22:57:57.845Z,12.46
2019-05-23T23:00:39.059Z,12.61
2019-05-23T23:03:12.567Z,12.58
2019-05-23T23:05:45.966Z,12.47
2019-05-23T23:08:20.635Z,12.17
2019-05-23T23:10:54.202Z,12.02
2019-05-23T23:13:38.071Z,11.88
2019-05-23T23:16:03.270Z,11.83
2019-05-23T23:18:36.746Z,11.80
2019-05-23T23:21:10.160Z,11.83
2019-05-23T23:23:43.654Z,11.75
2019-05-23T23:26:17.080Z,11.74
2019-05-23T23:28:50.632Z,11.68
2019-05-23T23:31:24.123Z,11.55
2019-05-23T23:33:57.588Z,11.40
2019-05-23T23:36:31.054Z,11.50
2019-05-23T23:39:05.507Z,11.64
2019-05-23T23:41:38.916Z,11.70
2019-05-23T23:44:12.688Z,11.64
2019-05-23T23:47:03.552Z,11.54
2019-05-23T23:49:55.264Z,11.45
2019-05-23T23:52:46.231Z,11.42
2019-05-23T23:55:37.990Z,11.40
2019-05-23T23:58:10.680Z,11.30
